KDRA

Desert Rock Airport

Mercury, Nevada, USA
METAR KDRA 231156Z AUTO 09005KT 10SM CLR 11/06 A3001 RMK AO2 SLP130 T01110056 10150 20100 53001
Observed Flight Rules
Oct-23 @ 11:56 UTC (39 minutes ago) Visual Flight Rules
Wind Visibility Clouds
90° at 5 knots 10 miles
  • Clear skies
Temperatures Readings
Current 11°C / 52°F
Dewpoint 6°C / 43°F
Humidity 72%
Altimeter 30.01" Hg
Pressure 1013 hPa
Elevation 1006
METAR KDRA 231156Z AUTO 09005KT 10SM CLR 11/06 A3001 RMK AO2 SLP130 T01110056 10150 20100 53001
Observed Flight Rules
Oct-23 @ 11:56 UTC
(39 minutes ago)
VFR
Wind Visibility
90° at 5 knots 10 miles
Clouds
  • Clear skies
Temperature Dewpoint
11°C / 52°F 6°C / 43°F
Humidity Altimeter Pressure
72% 30.01" Hg 1013 hPa